You are listening to:
UUEE Twr/App/Radar - Moscow, Russia

UUEE 190800Z 07008MPS CAVOK 10/M02 Q1022 R06C/CLRD62 R06L/CLRD62 NOSIG

If stream doesn't start automatically press the play button
If stream stops then reload player then press play